createdAt,value
2019-05-15T00:01:08.917Z,4.60
2019-05-15T00:03:58.512Z,4.60
2019-05-15T00:06:28.684Z,4.50
2019-05-15T00:08:58.831Z,4.50
2019-05-15T00:11:28.865Z,4.50
2019-05-15T00:13:58.929Z,4.50
2019-05-15T00:16:29.233Z,4.50
2019-05-15T00:18:59.190Z,4.50
2019-05-15T00:21:29.018Z,4.50
2019-05-15T00:23:58.778Z,4.40
2019-05-15T00:26:30.024Z,4.30
2019-05-15T00:29:11.688Z,4.30
2019-05-15T00:31:30.902Z,4.20
2019-05-15T00:34:00.523Z,4.20
2019-05-15T00:36:29.981Z,4.20
2019-05-15T00:38:59.459Z,4.00
2019-05-15T00:41:29.028Z,3.80
2019-05-15T00:43:58.599Z,3.70
2019-05-15T00:46:29.009Z,3.70
2019-05-15T00:48:59.186Z,3.80
2019-05-15T00:51:28.769Z,3.70
2019-05-15T00:53:59.017Z,3.80
2019-05-15T00:56:28.616Z,3.80
2019-05-15T00:58:58.827Z,3.70
2019-05-15T01:01:28.799Z,3.60
2019-05-15T01:03:58.744Z,3.60
2019-05-15T01:06:28.582Z,3.60
2019-05-15T01:08:59.572Z,3.60
2019-05-15T01:11:48.885Z,3.60
2019-05-15T01:14:18.685Z,3.70
2019-05-15T01:16:48.998Z,3.70
2019-05-15T01:19:18.702Z,3.70
2019-05-15T01:21:48.328Z,3.60
2019-05-15T01:24:18.926Z,3.60
2019-05-15T01:26:49.178Z,3.60
2019-05-15T01:29:18.816Z,3.50
2019-05-15T01:31:49.041Z,3.50
2019-05-15T01:34:18.723Z,3.50
2019-05-15T01:36:48.948Z,3.40
2019-05-15T01:39:18.689Z,3.40
2019-05-15T01:41:49.639Z,3.40
2019-05-15T01:44:19.266Z,3.30
2019-05-15T01:46:48.847Z,3.30
2019-05-15T01:49:18.761Z,3.20
2019-05-15T01:51:48.375Z,3.20
2019-05-15T01:54:18.661Z,3.20
2019-05-15T01:56:49.513Z,3.20
2019-05-15T01:59:19.156Z,3.20
2019-05-15T02:02:09.633Z,3.10
2019-05-15T02:04:39.485Z,3.00
2019-05-15T02:07:09.197Z,2.70
2019-05-15T02:09:38.765Z,2.70
2019-05-15T02:12:08.778Z,2.70
2019-05-15T02:14:39.207Z,2.70
2019-05-15T02:17:09.432Z,2.70
2019-05-15T02:19:39.286Z,2.70
2019-05-15T02:22:08.869Z,2.70
2019-05-15T02:24:39.021Z,2.80
2019-05-15T02:27:09.086Z,2.80
2019-05-15T02:29:38.707Z,2.80
2019-05-15T02:32:10.148Z,2.80
2019-05-15T02:34:39.886Z,2.80
2019-05-15T02:37:09.575Z,2.80
2019-05-15T02:39:39.217Z,2.70
2019-05-15T02:42:09.810Z,2.80
2019-05-15T02:44:40.511Z,2.70
2019-05-15T02:47:10.106Z,2.70
2019-05-15T02:49:39.848Z,2.70
2019-05-15T02:52:10.089Z,2.70
2019-05-15T02:54:40.235Z,2.70
2019-05-15T02:57:10.079Z,2.70
2019-05-15T02:59:41.340Z,2.70
2019-05-15T03:02:10.857Z,2.80
2019-05-15T03:04:41.801Z,2.80
2019-05-15T03:07:12.879Z,2.60
2019-05-15T03:09:42.385Z,2.60
2019-05-15T03:12:11.837Z,2.50
2019-05-15T03:14:42.094Z,2.40
2019-05-15T03:17:11.851Z,2.40
2019-05-15T03:19:41.972Z,2.30
2019-05-15T03:22:11.799Z,2.30
2019-05-15T03:24:41.614Z,2.20
2019-05-15T03:27:11.331Z,2.20
2019-05-15T03:29:42.235Z,2.10
2019-05-15T03:32:25.061Z,2.10
2019-05-15T03:34:47.802Z,2.10
2019-05-15T03:37:14.574Z,2.10
2019-05-15T03:39:46.913Z,2.10
2019-05-15T03:42:15.343Z,2.00
2019-05-15T03:44:46.363Z,2.00
2019-05-15T03:47:15.891Z,1.90
2019-05-15T03:49:45.601Z,1.90
2019-05-15T03:52:15.065Z,1.90
2019-05-15T03:54:44.564Z,1.90
2019-05-15T03:57:19.270Z,1.90
2019-05-15T03:59:48.932Z,1.90
2019-05-15T04:02:19.348Z,1.90
2019-05-15T04:04:50.235Z,1.90
2019-05-15T04:07:19.893Z,1.80
2019-05-15T04:09:49.584Z,1.80
2019-05-15T04:12:21.381Z,1.90
2019-05-15T04:14:51.054Z,1.90
2019-05-15T04:17:25.437Z,2.00
2019-05-15T04:19:55.362Z,2.10
2019-05-15T04:22:24.822Z,2.10
2019-05-15T04:24:58.963Z,2.20
2019-05-15T04:27:29.144Z,2.10
2019-05-15T04:29:59.259Z,2.10
2019-05-15T04:32:29.196Z,2.10
2019-05-15T04:34:59.326Z,2.10
2019-05-15T04:37:30.040Z,2.20
2019-05-15T04:39:59.980Z,2.30
2019-05-15T04:42:30.049Z,2.40
2019-05-15T04:44:59.825Z,2.50
2019-05-15T04:47:30.389Z,2.60
2019-05-15T04:50:00.005Z,2.80
2019-05-15T04:52:30.397Z,2.90
2019-05-15T04:55:00.400Z,3.00
2019-05-15T04:57:33.794Z,3.20
2019-05-15T05:00:02.457Z,3.20
2019-05-15T05:02:32.573Z,3.30
2019-05-15T05:05:02.250Z,3.40
2019-05-15T05:07:32.861Z,3.50
2019-05-15T05:10:04.021Z,3.70
2019-05-15T05:12:33.483Z,3.80
2019-05-15T05:15:03.132Z,4.00
2019-05-15T05:17:32.664Z,4.10
2019-05-15T05:20:02.136Z,4.20
2019-05-15T05:22:31.650Z,4.30
2019-05-15T05:25:01.165Z,4.40
2019-05-15T05:27:30.653Z,4.40
2019-05-15T05:30:01.633Z,4.50
2019-05-15T05:32:35.088Z,4.70
2019-05-15T05:35:03.760Z,4.90
2019-05-15T05:37:34.080Z,5.00
2019-05-15T05:40:05.052Z,5.10
2019-05-15T05:42:34.512Z,5.20
2019-05-15T05:45:04.531Z,5.40
2019-05-15T05:47:34.212Z,5.70
2019-05-15T05:50:07.791Z,5.80
2019-05-15T05:52:38.896Z,5.90
2019-05-15T05:55:08.946Z,6.00
2019-05-15T05:57:38.620Z,6.20
2019-05-15T06:00:10.232Z,6.40
2019-05-15T06:02:59.188Z,6.50
2019-05-15T06:05:28.718Z,6.60
2019-05-15T06:07:58.367Z,6.70
2019-05-15T06:10:29.355Z,6.70
2019-05-15T06:12:58.885Z,6.70
2019-05-15T06:15:28.711Z,6.80
2019-05-15T06:17:59.286Z,7.10
2019-05-15T06:20:28.901Z,7.20
2019-05-15T06:22:58.416Z,7.20
2019-05-15T06:25:30.561Z,7.40
2019-05-15T06:27:59.274Z,7.50
2019-05-15T06:30:31.251Z,7.70
2019-05-15T06:33:09.068Z,7.90
2019-05-15T06:35:32.727Z,7.80
2019-05-15T06:38:02.550Z,7.90
2019-05-15T06:40:32.200Z,8.10
2019-05-15T06:43:01.681Z,8.10
2019-05-15T06:45:31.231Z,8.20
2019-05-15T06:48:01.600Z,8.40
2019-05-15T06:50:35.268Z,8.70
2019-05-15T06:53:08.337Z,9.00
2019-05-15T06:55:38.845Z,9.30
2019-05-15T06:58:09.184Z,9.20
2019-05-15T07:00:39.228Z,9.10
2019-05-15T07:03:20.130Z,9.40
2019-05-15T07:05:40.045Z,9.50
2019-05-15T07:08:09.534Z,9.60
2019-05-15T07:10:39.160Z,10.00
2019-05-15T07:13:08.912Z,10.60
2019-05-15T07:15:58.509Z,10.70
2019-05-15T07:18:28.542Z,10.50
2019-05-15T07:20:58.712Z,10.70
2019-05-15T07:23:49.654Z,11.60
2019-05-15T07:26:18.876Z,11.20
2019-05-15T07:28:48.727Z,11.90
2019-05-15T07:31:18.346Z,13.00
2019-05-15T07:33:49.158Z,13.00
2019-05-15T07:36:19.455Z,13.60
2019-05-15T07:38:49.016Z,13.90
2019-05-15T07:41:18.696Z,13.90
2019-05-15T07:43:49.383Z,15.00
2019-05-15T07:46:19.190Z,14.90
2019-05-15T07:48:49.200Z,14.90
2019-05-15T07:51:18.834Z,14.60
2019-05-15T07:53:49.014Z,14.40
2019-05-15T07:56:18.830Z,13.90
2019-05-15T07:58:52.628Z,14.20
2019-05-15T08:01:19.800Z,14.80
2019-05-15T08:03:58.726Z,13.10
2019-05-15T08:06:20.614Z,13.80
2019-05-15T08:08:55.854Z,15.00
2019-05-15T08:11:25.523Z,17.00
2019-05-15T08:13:54.977Z,18.60
2019-05-15T08:16:24.510Z,16.90
2019-05-15T08:18:53.995Z,14.40
2019-05-15T08:21:23.523Z,13.40
2019-05-15T08:23:53.224Z,13.90
2019-05-15T08:26:22.880Z,14.90
2019-05-15T08:28:52.349Z,15.30
2019-05-15T08:31:22.148Z,17.20
2019-05-15T08:33:51.703Z,18.10
2019-05-15T08:36:21.207Z,16.90
2019-05-15T08:38:50.736Z,17.50
2019-05-15T08:41:20.265Z,18.00
2019-05-15T08:43:49.951Z,17.20
2019-05-15T08:46:19.502Z,18.40
2019-05-15T08:48:49.272Z,18.10
2019-05-15T08:51:19.469Z,17.80
2019-05-15T08:53:49.299Z,19.30
2019-05-15T08:56:19.420Z,20.60
2019-05-15T08:58:49.253Z,19.30
2019-05-15T09:01:38.406Z,19.40
2019-05-15T09:04:08.992Z,17.60
2019-05-15T09:06:41.432Z,17.60
2019-05-15T09:09:10.763Z,16.20
2019-05-15T09:11:40.217Z,17.30
2019-05-15T09:14:09.846Z,17.80
2019-05-15T09:16:39.364Z,18.40
2019-05-15T09:19:08.852Z,15.60
2019-05-15T09:21:38.905Z,15.80
2019-05-15T09:24:09.462Z,15.60
2019-05-15T09:26:40.401Z,17.00
2019-05-15T09:29:10.163Z,16.80
2019-05-15T09:31:59.218Z,18.80
2019-05-15T09:34:46.439Z,19.90
2019-05-15T09:37:00.145Z,20.20
2019-05-15T09:39:29.755Z,16.80
2019-05-15T09:41:59.419Z,15.70
2019-05-15T09:44:28.882Z,17.60
2019-05-15T09:46:58.634Z,17.40
2019-05-15T09:49:29.847Z,18.50
2019-05-15T09:51:59.405Z,20.70
2019-05-15T09:54:29.526Z,20.60
2019-05-15T09:57:18.910Z,19.60
2019-05-15T09:59:48.913Z,19.20
2019-05-15T10:02:19.108Z,18.00
2019-05-15T10:05:05.107Z,16.50
2019-05-15T10:07:20.359Z,18.30
2019-05-15T10:09:52.309Z,20.00
2019-05-15T10:12:21.149Z,21.40
2019-05-15T10:14:50.743Z,21.20
2019-05-15T10:17:22.689Z,18.50
2019-05-15T10:19:52.553Z,16.70
2019-05-15T10:22:22.119Z,17.20
2019-05-15T10:24:51.617Z,18.60
2019-05-15T10:27:21.129Z,18.40
2019-05-15T10:29:50.671Z,19.50
2019-05-15T10:32:20.284Z,19.70
2019-05-15T10:34:49.789Z,16.60
2019-05-15T10:37:19.371Z,17.70
2019-05-15T10:39:52.592Z,19.70
2019-05-15T10:42:20.605Z,18.20
2019-05-15T10:44:50.145Z,18.50
2019-05-15T10:47:20.690Z,18.90
2019-05-15T10:49:50.180Z,20.20
2019-05-15T10:52:19.909Z,19.40
2019-05-15T10:54:49.525Z,19.20
2019-05-15T10:57:19.099Z,19.40
2019-05-15T10:59:48.638Z,19.70
2019-05-15T11:02:19.246Z,20.50
2019-05-15T11:04:49.020Z,19.50
2019-05-15T11:07:19.472Z,19.70
2019-05-15T11:09:49.458Z,20.00
2019-05-15T11:12:19.180Z,20.80
2019-05-15T11:14:49.454Z,21.10
2019-05-15T11:17:19.087Z,20.20
2019-05-15T11:19:49.771Z,19.90
2019-05-15T11:22:19.848Z,20.20
2019-05-15T11:24:52.804Z,20.30
2019-05-15T11:27:20.559Z,20.10
2019-05-15T11:29:50.124Z,22.30
2019-05-15T11:32:19.787Z,22.10
2019-05-15T11:34:49.408Z,20.50
2019-05-15T11:37:19.137Z,20.00
2019-05-15T11:39:48.612Z,18.30
2019-05-15T11:42:20.291Z,20.40
2019-05-15T11:44:53.162Z,20.40
2019-05-15T11:47:24.303Z,21.70
2019-05-15T11:49:53.831Z,20.10
2019-05-15T11:52:23.508Z,20.80
2019-05-15T11:55:12.562Z,21.10
2019-05-15T11:57:46.962Z,22.30
2019-05-15T12:00:19.206Z,22.80
2019-05-15T12:03:05.061Z,21.10
2019-05-15T12:05:38.283Z,18.90
2019-05-15T12:08:29.031Z,19.90
2019-05-15T12:10:59.160Z,21.10
2019-05-15T12:13:29.075Z,21.10
2019-05-15T12:15:59.023Z,19.00
2019-05-15T12:18:28.856Z,18.30
2019-05-15T12:20:59.640Z,19.50
2019-05-15T12:23:29.580Z,19.70
2019-05-15T12:25:59.864Z,19.50
2019-05-15T12:28:29.913Z,18.20
2019-05-15T12:30:59.989Z,18.50
2019-05-15T12:33:29.683Z,20.20
2019-05-15T12:35:59.322Z,21.70
2019-05-15T12:38:29.205Z,21.40
2019-05-15T13:01:35.733Z,21.50
2019-05-15T13:04:05.269Z,22.60
2019-05-15T13:06:47.421Z,22.90
2019-05-15T13:09:08.692Z,21.80
2019-05-15T13:11:39.900Z,22.30
2019-05-15T13:14:12.029Z,22.50
2019-05-15T13:16:41.550Z,22.30
2019-05-15T13:19:12.059Z,21.40
2019-05-15T13:21:41.695Z,21.60
2019-05-15T13:24:11.795Z,22.20
2019-05-15T13:26:41.421Z,21.50
2019-05-15T13:29:10.905Z,20.10
2019-05-15T13:31:40.516Z,19.90
2019-05-15T13:34:10.198Z,20.10
2019-05-15T13:36:39.666Z,20.30
2019-05-15T13:39:09.228Z,21.00
2019-05-15T13:41:38.801Z,20.90
2019-05-15T13:44:09.120Z,21.30
2019-05-15T13:46:38.658Z,21.60
2019-05-15T13:49:08.474Z,20.10
2019-05-15T13:51:38.606Z,20.30
2019-05-15T13:54:08.833Z,20.50
2019-05-15T13:56:38.556Z,21.30
2019-05-15T13:59:08.224Z,21.70
2019-05-15T14:01:39.303Z,19.90
2019-05-15T14:04:09.199Z,20.00
2019-05-15T14:06:44.254Z,21.10
2019-05-15T14:09:13.739Z,19.90
2019-05-15T14:11:48.915Z,19.80
2019-05-15T14:14:16.933Z,18.80
2019-05-15T14:16:55.172Z,18.40
2019-05-15T14:19:24.664Z,19.20
2019-05-15T14:21:54.196Z,19.30
2019-05-15T14:24:43.406Z,18.70
2019-05-15T14:27:12.887Z,19.80
2019-05-15T14:29:42.654Z,19.00
2019-05-15T14:32:12.309Z,18.10
2019-05-15T14:34:41.804Z,17.90
2019-05-15T14:37:11.303Z,18.30
2019-05-15T14:39:40.775Z,18.20
2019-05-15T14:42:10.275Z,18.60
2019-05-15T14:44:39.744Z,18.70
2019-05-15T14:47:11.868Z,18.90
2019-05-15T14:49:44.493Z,17.50
2019-05-15T14:52:12.695Z,18.60
2019-05-15T14:54:42.202Z,19.30
2019-05-15T14:57:11.671Z,20.60
2019-05-15T14:59:41.163Z,19.60
2019-05-15T15:02:10.698Z,19.10
2019-05-15T15:04:40.196Z,17.90
2019-05-15T15:07:09.656Z,17.30
2019-05-15T15:09:39.151Z,16.50
2019-05-15T15:12:08.634Z,16.70
2019-05-15T15:14:38.376Z,17.60
2019-05-15T15:17:07.898Z,17.60
2019-05-15T15:19:38.903Z,17.30
2019-05-15T15:22:08.798Z,16.60
2019-05-15T15:24:41.558Z,16.10
2019-05-15T15:27:11.712Z,15.60
2019-05-15T15:29:41.251Z,15.30
2019-05-15T15:32:10.759Z,15.50
2019-05-15T15:34:40.247Z,15.80
2019-05-15T15:37:09.718Z,15.80
2019-05-15T15:39:39.300Z,16.20
2019-05-15T15:42:10.304Z,16.10
2019-05-15T15:44:39.782Z,16.10
2019-05-15T15:47:09.311Z,15.50
2019-05-15T15:49:38.982Z,14.80
2019-05-15T15:52:08.885Z,14.80
2019-05-15T15:54:39.536Z,15.10
2019-05-15T15:57:15.827Z,15.20
2019-05-15T15:59:45.310Z,15.50
2019-05-15T16:02:14.849Z,15.50
2019-05-15T16:04:44.319Z,15.70
2019-05-15T16:07:17.803Z,15.60
2019-05-15T16:09:48.342Z,15.80
2019-05-15T16:12:18.606Z,15.20
2019-05-15T16:14:48.848Z,15.40
2019-05-15T16:17:18.388Z,14.90
2019-05-15T16:19:49.174Z,15.00
2019-05-15T16:22:19.066Z,14.60
2019-05-15T16:24:49.262Z,14.70
2019-05-15T16:27:19.160Z,14.70
2019-05-15T16:29:48.680Z,14.70
2019-05-15T16:32:21.544Z,15.00
2019-05-15T16:34:49.258Z,14.70
2019-05-15T16:37:19.100Z,14.90
2019-05-15T16:39:48.860Z,15.20
2019-05-15T16:42:18.591Z,14.80
2019-05-15T16:44:49.028Z,15.10
2019-05-15T16:47:38.774Z,15.20
2019-05-15T16:50:10.564Z,15.30
2019-05-15T16:52:40.164Z,15.00
2019-05-15T16:55:11.421Z,14.90
2019-05-15T16:57:40.950Z,14.90
2019-05-15T17:00:12.036Z,14.70
2019-05-15T17:02:41.501Z,14.30
2019-05-15T17:05:11.896Z,14.10
2019-05-15T17:07:48.897Z,14.10
2019-05-15T17:10:18.850Z,14.20
2019-05-15T17:12:49.296Z,14.40
2019-05-15T17:15:19.859Z,14.40
2019-05-15T17:17:49.655Z,13.80
2019-05-15T17:20:19.897Z,13.70
2019-05-15T17:22:49.380Z,13.90
2019-05-15T17:25:19.037Z,14.00
2019-05-15T17:27:48.981Z,14.30
2019-05-15T17:30:19.470Z,14.30
2019-05-15T17:32:49.479Z,14.10
2019-05-15T17:35:19.277Z,14.10
2019-05-15T17:37:51.643Z,13.80
2019-05-15T17:40:21.505Z,13.90
2019-05-15T17:42:50.961Z,13.90
2019-05-15T17:45:20.947Z,13.90
2019-05-15T17:47:50.838Z,14.00
2019-05-15T17:50:20.643Z,14.30
2019-05-15T17:52:50.121Z,14.30
2019-05-15T17:55:21.353Z,14.10
2019-05-15T17:57:57.171Z,14.10
2019-05-15T18:00:22.559Z,13.90
2019-05-15T18:02:52.369Z,13.80
2019-05-15T18:05:24.957Z,13.60
2019-05-15T18:07:53.072Z,13.60
2019-05-15T18:10:22.572Z,13.80
2019-05-15T18:12:52.092Z,13.90
2019-05-15T18:15:21.640Z,13.90
2019-05-15T18:17:51.393Z,14.00
2019-05-15T18:20:25.531Z,14.10
2019-05-15T18:23:04.104Z,14.10
2019-05-15T18:25:33.591Z,14.20
2019-05-15T18:28:04.088Z,14.00
2019-05-15T18:30:33.973Z,13.90
2019-05-15T18:33:03.492Z,13.60
2019-05-15T18:35:33.426Z,13.50
2019-05-15T18:38:03.117Z,13.50
2019-05-15T18:40:51.920Z,13.10
2019-05-15T18:43:21.546Z,13.20
2019-05-15T18:45:51.070Z,13.00
2019-05-15T18:48:20.578Z,12.90
2019-05-15T18:50:50.085Z,12.90
2019-05-15T18:53:19.603Z,12.80
2019-05-15T18:55:49.113Z,12.80
2019-05-15T18:58:19.245Z,12.80
2019-05-15T19:00:49.073Z,12.60
2019-05-15T19:03:22.630Z,12.60
2019-05-15T19:05:49.857Z,12.60
2019-05-15T19:08:19.432Z,12.40
2019-05-15T19:10:48.931Z,12.20
2019-05-15T19:13:18.582Z,12.00
2019-05-15T19:16:08.295Z,12.00
2019-05-15T19:18:38.507Z,12.00
2019-05-15T19:21:08.224Z,11.90
2019-05-15T19:23:58.442Z,11.70
2019-05-15T19:26:29.128Z,11.70
2019-05-15T19:28:59.339Z,11.60
2019-05-15T19:31:30.657Z,11.50
2019-05-15T19:34:19.891Z,11.50
2019-05-15T19:36:49.369Z,11.40
2019-05-15T19:39:18.883Z,11.30
2019-05-15T19:41:48.503Z,11.20
2019-05-15T19:44:18.123Z,11.10
2019-05-15T19:46:48.095Z,11.10
2019-05-15T19:49:18.058Z,11.00
2019-05-15T19:52:08.508Z,10.90
2019-05-15T19:54:38.190Z,10.80
2019-05-15T19:57:09.153Z,10.80
2019-05-15T19:59:58.414Z,10.70
2019-05-15T20:02:28.570Z,10.60
2019-05-15T20:04:58.443Z,10.60
2019-05-15T20:07:28.800Z,10.50
2019-05-15T20:09:58.529Z,10.50
2019-05-15T20:12:28.174Z,10.40
2019-05-15T20:14:58.348Z,10.40
2019-05-15T20:17:27.946Z,10.30
2019-05-15T20:19:58.056Z,10.30
2019-05-15T20:22:28.332Z,10.20
2019-05-15T20:24:58.763Z,10.20
2019-05-15T20:27:28.690Z,10.10
2019-05-15T20:29:58.548Z,10.00
2019-05-15T20:32:28.106Z,10.00
2019-05-15T20:34:57.858Z,10.00
2019-05-15T20:37:28.942Z,9.90
2019-05-15T20:39:58.508Z,9.90
2019-05-15T20:42:28.362Z,9.80
2019-05-15T20:44:58.020Z,9.70
2019-05-15T20:47:28.031Z,9.60
2019-05-15T20:49:57.719Z,9.60
2019-05-15T20:52:28.508Z,9.50
2019-05-15T20:54:59.313Z,9.40
2019-05-15T20:57:29.018Z,9.40
2019-05-15T20:59:58.741Z,9.30
2019-05-15T21:02:29.021Z,9.30
2019-05-15T21:05:00.648Z,9.30
2019-05-15T21:07:38.671Z,9.30
2019-05-15T21:10:08.560Z,9.20
2019-05-15T21:12:41.063Z,9.10
2019-05-15T21:15:10.832Z,9.10
2019-05-15T21:17:41.638Z,9.00
2019-05-15T21:20:12.168Z,9.00
2019-05-15T21:22:41.703Z,8.90
2019-05-15T21:25:11.680Z,8.80
2019-05-15T21:27:43.325Z,8.70
2019-05-15T21:30:15.619Z,8.70
2019-05-15T21:32:45.094Z,8.60
2019-05-15T21:35:14.858Z,8.60
2019-05-15T21:37:44.339Z,8.60
2019-05-15T21:40:14.233Z,8.50
2019-05-15T21:42:43.735Z,8.40
2019-05-15T21:45:14.637Z,8.10
2019-05-15T21:47:44.304Z,8.10
2019-05-15T21:50:15.291Z,8.00
2019-05-15T21:52:44.784Z,8.00
2019-05-15T21:55:14.638Z,7.90
2019-05-15T21:57:44.178Z,7.80
2019-05-15T22:00:18.468Z,7.70
2019-05-15T22:03:07.632Z,7.70
2019-05-15T22:05:38.472Z,7.70
2019-05-15T22:08:08.275Z,7.60
2019-05-15T22:10:38.903Z,7.60
2019-05-15T22:13:08.562Z,7.60
2019-05-15T22:15:59.297Z,7.60
2019-05-15T22:18:47.961Z,7.60
2019-05-15T22:21:18.591Z,7.50
2019-05-15T22:23:48.212Z,7.40
2019-05-15T22:26:18.492Z,7.30
2019-05-15T22:28:49.232Z,7.30
2019-05-15T22:31:20.365Z,7.30
2019-05-15T22:33:50.101Z,7.30
2019-05-15T22:36:19.749Z,7.30
2019-05-15T22:38:50.391Z,7.20
2019-05-15T22:41:19.917Z,7.20
2019-05-15T22:43:49.400Z,7.00
2019-05-15T22:46:18.923Z,6.90
2019-05-15T22:49:07.723Z,6.90
2019-05-15T22:51:38.234Z,6.90
2019-05-15T22:54:08.670Z,6.80
2019-05-15T22:56:38.410Z,6.70
2019-05-15T22:59:08.619Z,6.60
2019-05-15T23:01:41.690Z,6.50
2019-05-15T23:04:11.362Z,6.40
2019-05-15T23:06:46.519Z,6.30
2019-05-15T23:09:16.006Z,6.30
2019-05-15T23:11:45.562Z,6.30
2019-05-15T23:14:15.043Z,6.20
2019-05-15T23:16:44.708Z,6.20
2019-05-15T23:19:14.159Z,6.20
2019-05-15T23:21:43.611Z,6.20
2019-05-15T23:24:13.140Z,6.20
2019-05-15T23:26:42.628Z,6.10
2019-05-15T23:29:12.082Z,6.10
2019-05-15T23:31:41.583Z,6.00
2019-05-15T23:34:11.039Z,6.00
2019-05-15T23:36:41.670Z,5.90
2019-05-15T23:39:11.125Z,5.80
2019-05-15T23:41:40.604Z,5.70
2019-05-15T23:44:12.734Z,5.70
2019-05-15T23:46:42.276Z,5.60
2019-05-15T23:49:11.741Z,5.50
2019-05-15T23:51:44.150Z,5.40
2019-05-15T23:54:32.975Z,5.40
2019-05-15T23:57:02.496Z,5.40
2019-05-15T23:59:31.995Z,5.40
